Time;durP1;ratioP1;P1;durP2;ratioP2;P2;SDS_P1;SDS_P2;PMS_P1;PMS_P2;Temp;Humidity;BMP_temperature;BMP_pressure;BME280_temperature;BME280_humidity;BME280_pressure;Samples;Min_cycle;Max_cycle;Signal;HPM_P1;HPM_P2
2021/06/11 00:00:12;;;;;;;6.50;5.90;;;23.20;81.20;23.10;99713.00;;;;338677;28;93526;-91
2021/06/11 00:00:24;;;;;;;5.93;5.43;;;23.20;81.20;23.10;99714.00;;;;338544;28;91189;-91
2021/06/11 00:00:36;;;;;;;5.65;5.18;;;23.20;81.30;23.20;99703.00;;;;338661;28;92961;-90
2021/06/11 00:00:48;;;;;;;5.68;5.22;;;23.20;81.20;23.20;99711.00;;;;338527;28;92014;-91
2021/06/11 00:01:00;;;;;;;5.90;5.40;;;23.20;81.30;23.20;99710.00;;;;338686;28;93801;-91
2021/06/11 00:01:12;;;;;;;7.68;5.82;;;23.20;81.40;23.10;99709.00;;;;337110;28;91220;-90
2021/06/11 00:01:24;;;;;;;7.80;5.65;;;23.30;81.20;23.10;99708.00;;;;339419;28;97016;-90
2021/06/11 00:01:36;;;;;;;5.68;5.07;;;23.30;81.10;23.10;99710.00;;;;341420;28;91347;-91
2021/06/11 00:01:48;;;;;;;7.10;5.35;;;23.30;81.20;23.10;99706.00;;;;338731;28;93318;-90
2021/06/11 00:02:00;;;;;;;7.18;5.40;;;23.30;81.30;23.10;99708.00;;;;338347;28;92111;-90
2021/06/11 00:02:14;;;;;;;6.55;5.30;;;23.30;81.20;23.20;99714.00;;;;338405;28;95949;-91
2021/06/11 00:02:26;;;;;;;5.70;5.20;;;23.30;81.10;23.10;99718.00;;;;339253;28;92046;-91
2021/06/11 00:02:37;;;;;;;6.28;5.68;;;23.30;81.20;23.20;99706.00;;;;336922;28;93114;-90
2021/06/11 00:02:49;;;;;;;6.68;5.43;;;23.30;81.20;23.20;99707.00;;;;337187;28;91961;-90
2021/06/11 00:03:02;;;;;;;6.38;5.55;;;23.30;81.20;23.10;99712.00;;;;336018;28;94191;-91
2021/06/11 00:03:14;;;;;;;5.80;5.20;;;23.30;81.20;23.10;99711.00;;;;339866;28;91925;-91
2021/06/11 00:03:26;;;;;;;5.88;5.38;;;23.30;81.30;23.10;99699.00;;;;337250;28;96452;-90
2021/06/11 00:03:38;;;;;;;5.75;5.35;;;23.30;81.40;23.00;99713.00;;;;337193;28;91353;-91
2021/06/11 00:03:49;;;;;;;5.90;5.40;;;23.30;81.50;23.00;99715.00;;;;341180;28;95841;-90
2021/06/11 00:04:01;;;;;;;5.63;5.13;;;23.30;81.60;23.10;99708.00;;;;341058;28;92035;-91
2021/06/11 00:04:13;;;;;;;5.82;5.32;;;23.20;81.30;23.10;99710.00;;;;341021;28;95501;-91
2021/06/11 00:04:25;;;;;;;5.88;5.47;;;23.20;81.30;23.10;99704.00;;;;337916;28;91363;-90
2021/06/11 00:04:37;;;;;;;6.05;5.55;;;23.30;81.40;23.10;99702.00;;;;341300;28;95859;-91
2021/06/11 00:04:48;;;;;;;5.80;5.30;;;23.20;81.40;23.10;99709.00;;;;340612;28;92102;-91
2021/06/11 00:05:00;;;;;;;5.82;5.22;;;23.30;81.30;23.10;99709.00;;;;335946;28;96344;-91
2021/06/11 00:05:12;;;;;;;5.85;5.25;;;23.30;81.40;22.90;99714.00;;;;338325;28;92253;-90
2021/06/11 00:05:24;;;;;;;6.05;5.30;;;23.20;81.60;23.00;99711.00;;;;338250;28;95770;-91
2021/06/11 00:05:36;;;;;;;6.18;5.57;;;23.20;81.50;23.00;99710.00;;;;338571;28;91235;-91
2021/06/11 00:05:48;;;;;;;6.03;5.43;;;23.20;81.50;23.10;99704.00;;;;338634;28;95862;-91
2021/06/11 00:06:00;;;;;;;6.25;5.75;;;23.20;81.40;23.00;99706.00;;;;338262;28;92157;-91
2021/06/11 00:06:12;;;;;;;6.53;5.63;;;23.20;81.30;22.80;99710.00;;;;338707;28;94575;-90
2021/06/11 00:06:24;;;;;;;9.63;5.60;;;23.20;81.60;23.00;99712.00;;;;336981;28;92072;-91
2021/06/11 00:06:36;;;;;;;8.93;5.45;;;23.20;81.60;23.00;99702.00;;;;338617;28;94573;-91
2021/06/11 00:06:51;;;;;;;6.43;5.82;;;23.20;81.60;23.10;99708.00;;;;337290;28;91955;-91
2021/06/11 00:07:03;;;;;;;6.18;5.57;;;23.20;81.50;23.10;99702.00;;;;336013;28;94106;-91
2021/06/11 00:07:15;;;;;;;5.88;5.32;;;23.20;81.60;23.20;99702.00;;;;339476;28;91322;-90
2021/06/11 00:07:27;;;;;;;6.07;5.57;;;23.20;81.60;23.20;99707.00;;;;339102;28;94293;-90
2021/06/11 00:07:39;;;;;;;6.10;5.60;;;23.20;81.50;23.10;99707.00;;;;337504;28;91307;-91
2021/06/11 00:07:50;;;;;;;5.53;5.03;;;23.20;81.50;23.20;99707.00;;;;338834;28;93628;-91
2021/06/11 00:08:03;;;;;;;5.45;4.95;;;23.20;81.40;23.10;99706.00;;;;339541;28;92039;-91
2021/06/11 00:08:15;;;;;;;5.28;4.78;;;23.20;81.40;23.10;99708.00;;;;337174;28;96256;-90
2021/06/11 00:08:29;;;;;;;5.13;4.68;;;23.20;81.40;23.10;99709.00;;;;337066;28;92052;-91
2021/06/11 00:08:41;;;;;;;5.25;4.75;;;23.30;81.40;22.70;99709.00;;;;338688;28;93407;-91
2021/06/11 00:08:52;;;;;;;5.75;5.15;;;23.20;81.70;22.70;99695.00;;;;335816;28;92006;-91
2021/06/11 00:09:06;;;;;;;6.15;5.60;;;23.20;82.40;22.80;99703.00;;;;336011;28;94359;-91
2021/06/11 00:09:18;;;;;;;6.13;5.63;;;23.10;81.60;22.90;99706.00;;;;337140;28;92407;-91
2021/06/11 00:09:30;;;;;;;5.65;5.20;;;23.10;81.80;22.80;99703.00;;;;338658;28;94547;-90
2021/06/11 00:09:42;;;;;;;5.80;5.35;;;23.10;81.70;22.90;99704.00;;;;338508;28;90378;-90
2021/06/11 00:09:54;;;;;;;5.72;5.32;;;23.10;81.70;22.90;99705.00;;;;339896;28;95264;-90
2021/06/11 00:10:09;;;;;;;5.72;5.32;;;23.10;81.80;23.00;99709.00;;;;338579;28;91175;-91
2021/06/11 00:10:21;;;;;;;5.88;5.38;;;23.10;81.80;23.00;99707.00;;;;338934;28;95829;-90
2021/06/11 00:10:33;;;;;;;5.72;5.28;;;23.10;81.80;23.10;99708.00;;;;338005;28;91279;-91
2021/06/11 00:10:46;;;;;;;5.75;5.25;;;23.10;81.70;23.00;99704.00;;;;338547;28;94489;-91
2021/06/11 00:10:57;;;;;;;5.60;5.10;;;23.10;81.70;22.90;99703.00;;;;338468;28;91912;-91
2021/06/11 00:11:09;;;;;;;5.53;5.03;;;23.10;81.80;22.70;99706.00;;;;339722;28;95727;-91
2021/06/11 00:11:21;;;;;;;5.85;5.25;;;23.10;81.70;22.90;99711.00;;;;335684;28;92113;-91
2021/06/11 00:11:34;;;;;;;8.35;5.32;;;23.10;81.70;22.90;99703.00;;;;339024;28;95138;-90
2021/06/11 00:11:48;;;;;;;8.52;5.38;;;23.10;82.20;23.00;99702.00;;;;341653;28;91545;-90
2021/06/11 00:12:01;;;;;;;6.60;5.40;;;23.20;81.80;23.00;99705.00;;;;341431;28;94339;-91
2021/06/11 00:12:14;;;;;;;5.88;5.28;;;23.20;81.70;22.70;99702.00;;;;338644;28;92157;-90
2021/06/11 00:12:26;;;;;;;5.85;4.90;;;23.20;81.80;22.80;99701.00;;;;337420;28;96277;-90
2021/06/11 00:12:39;;;;;;;5.35;4.63;;;23.10;81.60;22.90;99700.00;;;;337320;28;92040;-91
2021/06/11 00:12:51;;;;;;;5.55;5.03;;;23.10;81.70;22.90;99706.00;;;;338992;28;93584;-90
2021/06/11 00:13:03;;;;;;;5.50;4.97;;;23.10;81.70;22.80;99703.00;;;;337193;28;92040;-90
2021/06/11 00:13:15;;;;;;;5.40;4.93;;;23.10;81.70;22.90;99697.00;;;;338732;28;97017;-90
2021/06/11 00:13:27;;;;;;;5.60;5.10;;;23.10;82.20;22.90;99703.00;;;;338878;28;91265;-91
2021/06/11 00:13:39;;;;;;;5.82;5.30;;;23.10;81.70;22.80;99700.00;;;;339934;28;95996;-93
2021/06/11 00:13:51;;;;;;;5.93;5.35;;;23.10;81.70;22.60;99691.00;;;;341109;28;91151;-90
2021/06/11 00:14:03;;;;;;;5.50;5.00;;;23.10;81.80;22.60;99700.00;;;;338911;28;92215;-91
2021/06/11 00:14:16;;;;;;;5.45;4.95;;;23.10;81.80;22.60;99702.00;;;;338741;28;92137;-91
2021/06/11 00:14:27;;;;;;;6.20;5.60;;;23.00;81.80;22.80;99699.00;;;;339990;28;93850;-91
2021/06/11 00:14:40;;;;;;;6.15;5.55;;;23.00;82.00;22.90;99705.00;;;;338783;28;92043;-91
2021/06/11 00:14:52;;;;;;;5.75;5.25;;;23.00;81.70;22.80;99709.00;;;;340128;28;97618;-91
2021/06/11 00:15:05;;;;;;;5.93;5.40;;;23.00;81.80;22.90;99708.00;;;;340240;28;91174;-90
2021/06/11 00:15:17;;;;;;;6.00;5.45;;;23.00;81.80;22.90;99705.00;;;;338828;28;95616;-90
2021/06/11 00:15:30;;;;;;;5.93;5.43;;;23.00;81.80;22.70;99703.00;;;;338954;28;92224;-90
2021/06/11 00:15:42;;;;;;;6.47;5.50;;;23.00;81.90;22.80;99699.00;;;;339163;28;94339;-91
2021/06/11 00:15:54;;;;;;;6.82;5.20;;;23.00;81.80;22.90;99706.00;;;;336416;28;91228;-91
2021/06/11 00:16:06;;;;;;;5.78;4.82;;;23.00;81.80;23.00;99710.00;;;;339042;28;93782;-90
2021/06/11 00:16:17;;;;;;;5.68;5.05;;;23.10;82.00;23.00;99705.00;;;;338723;28;91019;-90
2021/06/11 00:16:29;;;;;;;5.70;5.20;;;23.10;81.90;22.90;99714.00;;;;340498;28;93188;-91
2021/06/11 00:16:41;;;;;;;5.53;5.13;;;23.10;81.90;22.90;99705.00;;;;338760;28;91918;-90
2021/06/11 00:16:53;;;;;;;5.55;5.15;;;23.10;81.70;22.90;99698.00;;;;339142;28;93127;-90
2021/06/11 00:17:05;;;;;;;5.93;5.43;;;23.10;81.80;22.90;99708.00;;;;338780;28;92089;-90
2021/06/11 00:17:17;;;;;;;6.20;5.63;;;23.10;81.70;22.90;99703.00;;;;337678;28;95440;-91
2021/06/11 00:17:29;;;;;;;6.05;5.45;;;23.10;81.70;22.90;99700.00;;;;338695;28;92195;-91
2021/06/11 00:17:40;;;;;;;5.95;5.40;;;23.10;81.90;22.90;99697.00;;;;339000;28;96786;-91
2021/06/11 00:17:53;;;;;;;5.85;5.35;;;23.10;81.70;22.90;99701.00;;;;340099;28;90452;-91
2021/06/11 00:18:05;;;;;;;5.80;5.30;;;23.10;81.80;22.90;99706.00;;;;338709;28;96039;-90
2021/06/11 00:18:17;;;;;;;5.35;4.85;;;23.10;81.80;22.90;99698.00;;;;337403;28;91020;-91
2021/06/11 00:18:29;;;;;;;5.50;5.00;;;23.10;81.80;22.90;99708.00;;;;338913;28;93563;-91
2021/06/11 00:18:41;;;;;;;5.15;4.65;;;23.10;81.70;22.80;99705.00;;;;337311;28;92071;-91
2021/06/11 00:18:53;;;;;;;5.15;4.70;;;23.10;81.60;22.90;99707.00;;;;340051;28;93892;-91
2021/06/11 00:19:04;;;;;;;5.20;4.80;;;23.10;81.70;22.70;99704.00;;;;338357;28;91214;-91
2021/06/11 00:19:16;;;;;;;5.32;4.82;;;23.00;81.70;22.60;99706.00;;;;338508;28;94072;-90
2021/06/11 00:19:28;;;;;;;5.43;4.93;;;23.10;81.70;22.70;99705.00;;;;338712;28;91217;-91
2021/06/11 00:19:40;;;;;;;5.72;5.05;;;23.00;81.70;22.60;99706.00;;;;341003;28;94478;-91
2021/06/11 00:19:52;;;;;;;6.05;4.78;;;23.00;81.80;22.70;99702.00;;;;338980;28;91298;-90
2021/06/11 00:20:05;;;;;;;5.95;4.60;;;23.00;81.70;22.80;99698.00;;;;340140;28;93566;-91
2021/06/11 00:20:18;;;;;;;5.05;4.55;;;23.00;81.80;22.80;99699.00;;;;339890;28;91971;-91
2021/06/11 00:20:30;;;;;;;5.15;4.75;;;23.00;81.70;22.70;99707.00;;;;339623;28;96675;-89
2021/06/11 00:20:42;;;;;;;5.43;5.03;;;23.00;81.70;22.60;99709.00;;;;337081;28;92014;-90
2021/06/11 00:20:57;;;;;;;5.88;5.35;;;23.00;81.80;22.70;99703.00;;;;338706;28;92997;-91
2021/06/11 00:21:09;;;;;;;5.85;5.25;;;23.00;81.90;22.80;99702.00;;;;339720;28;91991;-90
2021/06/11 00:21:20;;;;;;;5.78;5.28;;;23.00;82.00;22.80;99698.00;;;;339896;28;96433;-90
2021/06/11 00:21:32;;;;;;;5.68;5.10;;;23.00;81.80;22.80;99699.00;;;;339764;28;91308;-89
2021/06/11 00:21:44;;;;;;;5.75;5.15;;;23.00;81.90;22.80;99701.00;;;;339937;28;97464;-90
2021/06/11 00:21:56;;;;;;;5.65;5.22;;;23.00;81.80;22.90;99702.00;;;;338549;28;91207;-89
2021/06/11 00:22:08;;;;;;;5.78;5.30;;;23.00;81.70;22.90;99704.00;;;;336076;28;93221;-89
2021/06/11 00:22:20;;;;;;;5.53;5.13;;;23.00;81.80;22.80;99697.00;;;;337097;28;91941;-89
2021/06/11 00:22:32;;;;;;;6.25;5.22;;;23.00;81.80;22.90;99701.00;;;;338301;28;97219;-89
2021/06/11 00:22:44;;;;;;;6.28;5.38;;;23.00;81.80;22.90;99706.00;;;;338321;28;92048;-90
2021/06/11 00:22:56;;;;;;;5.95;5.35;;;23.00;81.80;22.90;99694.00;;;;338767;28;94311;-89
2021/06/11 00:23:08;;;;;;;6.13;5.53;;;23.00;81.90;22.90;99705.00;;;;335812;28;91968;-89
2021/06/11 00:23:22;;;;;;;6.07;5.55;;;23.00;81.90;22.90;99706.00;;;;338476;28;96666;-89
2021/06/11 00:23:34;;;;;;;6.07;5.55;;;23.00;81.80;22.80;99701.00;;;;336803;28;92378;-90
2021/06/11 00:23:46;;;;;;;5.68;5.18;;;23.00;81.90;22.80;99704.00;;;;337305;28;94390;-90
2021/06/11 00:23:58;;;;;;;5.32;4.82;;;23.00;81.80;22.80;99700.00;;;;339693;28;91312;-90
2021/06/11 00:24:10;;;;;;;5.38;4.88;;;23.00;81.70;22.70;99704.00;;;;338670;28;92681;-90
2021/06/11 00:24:21;;;;;;;5.53;5.03;;;23.00;81.70;22.80;99699.00;;;;338555;28;91024;-90
2021/06/11 00:24:33;;;;;;;5.40;5.00;;;23.00;81.80;22.80;99700.00;;;;337235;28;93938;-89
2021/06/11 00:24:46;;;;;;;5.75;5.25;;;23.00;82.00;22.80;99693.00;;;;337173;28;92051;-89
2021/06/11 00:24:58;;;;;;;5.95;5.45;;;23.00;82.20;22.90;99702.00;;;;337397;28;93589;-89
2021/06/11 00:25:12;;;;;;;5.72;5.22;;;23.00;82.10;23.00;99701.00;;;;337173;28;91912;-89
2021/06/11 00:25:25;;;;;;;5.20;4.80;;;23.00;82.10;23.00;99704.00;;;;340297;28;97262;-89
2021/06/11 00:25:37;;;;;;;5.32;4.93;;;23.00;82.20;22.90;99701.00;;;;341003;28;91289;-89
2021/06/11 00:25:50;;;;;;;5.75;5.25;;;23.00;82.00;22.90;99695.00;;;;338549;28;95587;-89
2021/06/11 00:26:02;;;;;;;5.78;5.28;;;23.00;82.10;22.80;99698.00;;;;338379;28;91290;-89
2021/06/11 00:26:15;;;;;;;5.97;5.25;;;23.00;82.10;22.80;99700.00;;;;339897;28;93443;-89
2021/06/11 00:26:27;;;;;;;6.35;5.55;;;23.00;82.00;22.80;99696.00;;;;340823;28;92023;-90
2021/06/11 00:26:39;;;;;;;5.82;5.25;;;23.00;82.00;22.80;99697.00;;;;338533;28;97128;-89
2021/06/11 00:26:51;;;;;;;5.68;5.22;;;23.00;81.90;22.90;99701.00;;;;338444;28;92008;-90
2021/06/11 00:27:03;;;;;;;5.50;5.10;;;23.00;82.00;22.90;99698.00;;;;337337;28;95440;-89
2021/06/11 00:27:15;;;;;;;5.95;5.45;;;23.00;82.00;22.90;99698.00;;;;339708;28;91292;-88
2021/06/11 00:27:27;;;;;;;5.80;5.40;;;23.00;82.10;23.00;99702.00;;;;337415;28;93293;-89
2021/06/11 00:27:39;;;;;;;5.72;5.32;;;23.00;82.00;22.90;99697.00;;;;338437;28;92062;-90
2021/06/11 00:27:51;;;;;;;5.68;5.18;;;23.00;82.00;22.90;99695.00;;;;339931;28;95255;-89
2021/06/11 00:28:04;;;;;;;6.03;5.32;;;23.00;81.90;22.80;99700.00;;;;337205;28;91271;-90
2021/06/11 00:28:16;;;;;;;6.07;5.47;;;23.00;82.00;22.70;99693.00;;;;338494;28;96920;-89
2021/06/11 00:28:28;;;;;;;6.05;5.40;;;23.00;82.70;22.70;99699.00;;;;338737;28;92021;-90
2021/06/11 00:28:40;;;;;;;6.53;5.47;;;23.00;82.00;22.80;99693.00;;;;339864;28;94104;-88
2021/06/11 00:28:52;;;;;;;6.40;5.35;;;22.90;82.00;22.80;99700.00;;;;340251;28;91167;-88
2021/06/11 00:29:04;;;;;;;5.97;5.47;;;22.90;81.90;22.80;99693.00;;;;337001;28;95188;-89
2021/06/11 00:29:16;;;;;;;10.60;5.53;;;22.90;82.00;22.80;99696.00;;;;338086;28;91185;-89
2021/06/11 00:29:28;;;;;;;12.07;5.65;;;23.00;82.00;22.90;99697.00;;;;337258;28;94200;-90
2021/06/11 00:29:40;;;;;;;12.60;5.40;;;23.00;81.90;22.80;99691.00;;;;338583;28;90985;-89
2021/06/11 00:29:52;;;;;;;5.70;5.15;;;23.00;82.00;22.90;99696.00;;;;337363;28;94231;-90
2021/06/11 00:30:05;;;;;;;6.18;5.13;;;22.90;81.90;22.90;99699.00;;;;339778;28;91289;-89
2021/06/11 00:30:18;;;;;;;5.45;4.90;;;23.00;82.00;22.90;99704.00;;;;338458;28;95175;-89
2021/06/11 00:30:33;;;;;;;5.40;4.90;;;23.00;81.90;22.90;99697.00;;;;339765;28;92000;-89
2021/06/11 00:30:45;;;;;;;5.38;4.88;;;23.00;81.90;22.80;99697.00;;;;337213;28;95570;-90
2021/06/11 00:30:57;;;;;;;5.30;4.80;;;23.00;81.80;22.90;99700.00;;;;337137;28;92110;-90
2021/06/11 00:31:09;;;;;;;5.55;5.07;;;23.00;81.80;22.90;99700.00;;;;338662;28;94156;-89
2021/06/11 00:31:21;;;;;;;5.30;4.80;;;23.00;81.70;22.90;99696.00;;;;338974;28;91135;-88
2021/06/11 00:31:33;;;;;;;5.43;4.82;;;23.00;81.70;22.80;99686.00;;;;341948;28;96203;-88
2021/06/11 00:31:45;;;;;;;5.50;5.00;;;23.00;81.70;22.80;99697.00;;;;338465;28;91233;-89
2021/06/11 00:31:57;;;;;;;6.05;5.50;;;23.00;81.70;22.90;99698.00;;;;340865;28;95962;-89
2021/06/11 00:32:09;;;;;;;6.18;5.68;;;23.00;81.70;23.00;99693.00;;;;338553;28;91272;-89
2021/06/11 00:32:21;;;;;;;5.95;5.45;;;23.00;81.80;22.90;99686.00;;;;338408;28;96577;-90
2021/06/11 00:32:34;;;;;;;5.35;4.95;;;23.00;82.40;22.80;99704.00;;;;338450;28;91994;-90
2021/06/11 00:32:45;;;;;;;5.70;5.20;;;23.00;81.70;22.80;99691.00;;;;337290;28;93320;-90
2021/06/11 00:32:58;;;;;;;5.68;5.25;;;23.00;81.70;22.90;99698.00;;;;342448;28;91935;-90
2021/06/11 00:33:10;;;;;;;5.97;5.43;;;23.00;81.80;22.90;99701.00;;;;339927;28;95324;-89
2021/06/11 00:33:22;;;;;;;6.00;5.40;;;23.00;81.70;23.00;99695.00;;;;338318;28;92033;-90
2021/06/11 00:33:34;;;;;;;5.70;5.20;;;23.00;81.70;23.00;99698.00;;;;338588;28;95606;-90
2021/06/11 00:33:46;;;;;;;5.53;5.03;;;23.00;81.70;22.90;99702.00;;;;335933;28;91061;-89
2021/06/11 00:33:58;;;;;;;5.47;5.03;;;23.00;81.70;23.00;99694.00;;;;338620;28;94218;-89
2021/06/11 00:34:09;;;;;;;5.38;4.97;;;23.00;81.70;23.00;99695.00;;;;339746;28;90511;-90
2021/06/11 00:34:21;;;;;;;5.40;5.00;;;23.00;81.70;23.10;99694.00;;;;339774;28;93501;-88
2021/06/11 00:34:33;;;;;;;5.60;5.13;;;23.00;81.70;23.00;99699.00;;;;341982;28;92114;-88
2021/06/11 00:34:45;;;;;;;5.30;4.90;;;23.00;81.60;23.00;99699.00;;;;338596;28;93352;-89
2021/06/11 00:34:57;;;;;;;5.22;4.82;;;23.00;81.50;23.00;99699.00;;;;340802;28;92163;-90
2021/06/11 00:35:10;;;;;;;4.95;4.55;;;23.00;81.50;22.90;99705.00;;;;338613;28;94086;-90
2021/06/11 00:35:22;;;;;;;5.72;5.15;;;23.00;81.50;22.80;99693.00;;;;336763;28;92333;-90
2021/06/11 00:35:34;;;;;;;5.93;5.43;;;23.00;81.50;22.80;99691.00;;;;338380;28;95712;-89
2021/06/11 00:35:46;;;;;;;6.20;5.70;;;23.00;81.40;22.80;99700.00;;;;338409;28;92074;-89
2021/06/11 00:35:58;;;;;;;5.60;5.20;;;23.00;81.40;22.80;99703.00;;;;338644;28;93779;-90
2021/06/11 00:36:10;;;;;;;5.78;5.28;;;23.00;81.40;22.90;99704.00;;;;337251;28;91290;-89
2021/06/11 00:36:22;;;;;;;6.00;5.50;;;23.00;81.60;22.90;99696.00;;;;338671;28;93077;-90
2021/06/11 00:36:33;;;;;;;5.97;5.47;;;23.00;81.50;23.00;99697.00;;;;338290;28;92049;-89
2021/06/11 00:36:45;;;;;;;5.20;4.80;;;23.00;81.50;22.90;99700.00;;;;337253;28;95743;-89
2021/06/11 00:36:57;;;;;;;5.30;4.90;;;23.00;81.50;22.80;99692.00;;;;338637;28;91398;-90
2021/06/11 00:37:09;;;;;;;5.57;4.97;;;23.00;81.40;22.90;99699.00;;;;338702;28;92959;-90
2021/06/11 00:37:21;;;;;;;6.07;5.13;;;23.00;81.40;22.90;99696.00;;;;336923;28;91082;-90
2021/06/11 00:37:33;;;;;;;5.82;4.95;;;23.00;81.50;22.90;99702.00;;;;341194;28;94149;-90
2021/06/11 00:37:44;;;;;;;5.28;4.78;;;23.00;81.60;23.00;99696.00;;;;338547;28;91845;-89
2021/06/11 00:37:56;;;;;;;5.03;4.60;;;23.00;81.50;23.00;99704.00;;;;341010;28;95756;-90
2021/06/11 00:38:08;;;;;;;5.45;4.95;;;23.10;81.50;22.90;99700.00;;;;339564;28;92025;-89
2021/06/11 00:38:20;;;;;;;5.80;5.30;;;23.10;81.50;23.00;99697.00;;;;339657;28;92216;-88
2021/06/11 00:38:33;;;;;;;5.82;5.30;;;23.00;81.50;23.00;99699.00;;;;338488;28;91349;-90
2021/06/11 00:38:45;;;;;;;5.88;5.38;;;23.10;81.50;23.00;99701.00;;;;340041;28;93482;-89
2021/06/11 00:38:57;;;;;;;5.88;5.38;;;23.10;81.40;22.90;99701.00;;;;338443;28;91999;-88
2021/06/11 00:39:09;;;;;;;5.60;5.10;;;23.10;81.40;23.00;99701.00;;;;338586;28;96650;-90
2021/06/11 00:39:21;;;;;;;5.63;4.60;;;23.10;81.30;23.00;99701.00;;;;335773;28;92046;-90
2021/06/11 00:39:33;;;;;;;4.90;4.32;;;23.10;81.30;23.00;99701.00;;;;337221;28;95634;-90
2021/06/11 00:39:45;;;;;;;5.40;4.75;;;23.10;81.30;23.00;99698.00;;;;338391;28;91982;-89
2021/06/11 00:39:58;;;;;;;5.75;5.20;;;23.10;81.30;23.00;99701.00;;;;337140;28;96698;-91
2021/06/11 00:40:10;;;;;;;5.80;5.22;;;23.10;81.20;23.00;99699.00;;;;338555;28;91187;-90
2021/06/11 00:40:22;;;;;;;5.30;4.80;;;23.10;81.20;23.00;99701.00;;;;339207;28;97430;-89
2021/06/11 00:40:35;;;;;;;5.22;4.72;;;23.20;81.30;23.00;99704.00;;;;339022;28;92018;-89
2021/06/11 00:40:46;;;;;;;5.53;5.00;;;23.20;81.20;22.90;99697.00;;;;341264;28;96644;-90
2021/06/11 00:40:58;;;;;;;5.38;4.88;;;23.20;81.20;22.90;99693.00;;;;339664;28;91256;-89
2021/06/11 00:41:10;;;;;;;5.03;4.63;;;23.20;81.20;22.90;99697.00;;;;342716;28;94021;-90
2021/06/11 00:41:22;;;;;;;5.25;4.85;;;23.10;81.10;22.90;99703.00;;;;340693;28;91944;-90
2021/06/11 00:41:34;;;;;;;5.22;4.82;;;23.10;81.20;22.90;99702.00;;;;337316;28;94233;-90
2021/06/11 00:41:45;;;;;;;5.43;5.00;;;23.10;81.20;22.90;99696.00;;;;338556;28;91100;-89
2021/06/11 00:42:00;;;;;;;5.15;4.75;;;23.10;81.20;23.00;99701.00;;;;337222;28;96625;-90
2021/06/11 00:42:12;;;;;;;4.97;4.57;;;23.10;81.20;23.00;99693.00;;;;339907;28;90377;-90
2021/06/11 00:42:26;;;;;;;5.45;4.95;;;23.10;81.80;23.00;99694.00;;;;339848;28;95454;-89
2021/06/11 00:42:37;;;;;;;5.63;5.13;;;23.10;81.80;23.00;99695.00;;;;338276;28;92268;-90
2021/06/11 00:42:49;;;;;;;5.82;5.32;;;23.20;81.20;23.00;99694.00;;;;338560;28;95308;-90
2021/06/11 00:43:01;;;;;;;6.38;5.50;;;23.20;81.20;23.00;99696.00;;;;339807;28;91199;-90
2021/06/11 00:43:13;;;;;;;6.55;5.40;;;23.20;81.30;23.10;99697.00;;;;339952;28;93322;-89
2021/06/11 00:43:25;;;;;;;6.53;5.32;;;23.20;81.20;23.00;99700.00;;;;341664;28;92195;-89
2021/06/11 00:43:37;;;;;;;5.70;5.20;;;23.20;81.10;23.00;99695.00;;;;338527;28;94168;-89
2021/06/11 00:43:49;;;;;;;5.75;5.25;;;23.20;81.20;23.10;99701.00;;;;339868;28;92209;-90
2021/06/11 00:44:01;;;;;;;5.55;5.15;;;23.20;81.20;23.00;99698.00;;;;335956;28;94156;-90
2021/06/11 00:44:12;;;;;;;5.30;4.90;;;23.20;81.20;23.10;99691.00;;;;337353;28;91223;-89
2021/06/11 00:44:24;;;;;;;5.50;5.00;;;23.10;81.10;23.10;99701.00;;;;340860;28;93459;-89
2021/06/11 00:44:36;;;;;;;5.65;5.07;;;23.20;81.20;23.10;99704.00;;;;339873;28;92146;-87
2021/06/11 00:44:48;;;;;;;5.68;5.07;;;23.20;81.10;23.10;99699.00;;;;338719;28;95281;-89
2021/06/11 00:45:01;;;;;;;5.78;5.13;;;23.20;81.10;23.10;99702.00;;;;341272;28;92127;-90
2021/06/11 00:45:13;;;;;;;5.32;4.82;;;23.20;81.00;23.10;99701.00;;;;340149;28;96455;-90
2021/06/11 00:45:25;;;;;;;5.40;4.93;;;23.10;81.00;23.00;99696.00;;;;339995;28;92017;-89
2021/06/11 00:45:39;;;;;;;5.20;4.72;;;23.10;81.00;23.00;99696.00;;;;338925;28;93320;-90
2021/06/11 00:45:51;;;;;;;5.15;4.72;;;23.10;80.90;23.10;99698.00;;;;339918;28;92285;-90
2021/06/11 00:46:03;;;;;;;5.38;4.88;;;23.20;81.00;22.90;99700.00;;;;340233;28;96742;-90
2021/06/11 00:46:15;;;;;;;5.40;4.90;;;23.20;81.00;22.90;99700.00;;;;338730;28;91190;-89
2021/06/11 00:46:26;;;;;;;5.32;4.90;;;23.20;81.20;23.00;99705.00;;;;339694;28;94543;-89
2021/06/11 00:46:38;;;;;;;5.70;5.20;;;23.10;81.30;23.10;99696.00;;;;338141;28;92081;-89
2021/06/11 00:46:50;;;;;;;5.53;5.03;;;23.10;81.30;23.20;99696.00;;;;338402;28;94216;-90
2021/06/11 00:47:03;;;;;;;5.70;5.20;;;23.20;81.30;23.10;99691.00;;;;337435;28;91193;-90
2021/06/11 00:47:15;;;;;;;5.63;5.13;;;23.20;81.40;23.00;99700.00;;;;340211;28;94221;-90
2021/06/11 00:47:26;;;;;;;5.72;5.22;;;23.20;81.30;22.90;99701.00;;;;337329;28;92004;-89
2021/06/11 00:47:38;;;;;;;5.60;5.10;;;23.10;81.20;23.00;99698.00;;;;338793;28;95865;-89
2021/06/11 00:47:50;;;;;;;6.03;5.18;;;23.10;81.20;23.00;99697.00;;;;337423;28;91913;-89
2021/06/11 00:48:03;;;;;;;5.95;5.32;;;23.10;81.20;23.00;99696.00;;;;337378;28;94246;-89
2021/06/11 00:48:15;;;;;;;5.35;4.95;;;23.10;81.30;23.00;99704.00;;;;341110;28;90480;-90
2021/06/11 00:48:27;;;;;;;4.88;4.50;;;23.10;81.30;23.00;99691.00;;;;338859;28;96854;-89
2021/06/11 00:48:39;;;;;;;5.22;4.82;;;23.10;81.30;23.00;99705.00;;;;338668;28;92040;-90
2021/06/11 00:48:51;;;;;;;5.90;5.22;;;23.10;81.30;23.00;99694.00;;;;339023;28;93077;-90
2021/06/11 00:49:03;;;;;;;5.82;5.22;;;23.10;81.30;22.80;99691.00;;;;337127;28;92053;-90
2021/06/11 00:49:15;;;;;;;6.00;5.07;;;23.10;81.30;22.70;99703.00;;;;341613;28;93032;-89
2021/06/11 00:49:26;;;;;;;5.60;5.10;;;23.10;81.50;22.60;99707.00;;;;340387;28;92018;-89
2021/06/11 00:49:38;;;;;;;5.88;5.28;;;23.00;81.50;22.70;99704.00;;;;340253;28;94577;-89
2021/06/11 00:49:50;;;;;;;5.80;5.25;;;23.00;81.50;22.80;99700.00;;;;338467;28;91917;-89
2021/06/11 00:50:04;;;;;;;5.65;4.88;;;23.00;81.50;22.90;99698.00;;;;338869;28;93857;-90
2021/06/11 00:50:20;;;;;;;5.85;5.20;;;23.00;81.70;22.90;99704.00;;;;334736;29;91318;-90
2021/06/11 00:50:34;;;;;;;5.68;5.20;;;23.00;81.60;22.90;99702.00;;;;340072;28;94273;-90
2021/06/11 00:50:46;;;;;;;5.25;4.85;;;23.00;81.70;22.70;99706.00;;;;338734;28;92084;-89
2021/06/11 00:50:58;;;;;;;5.22;4.82;;;23.00;82.20;22.70;99700.00;;;;338935;28;93408;-90
2021/06/11 00:51:10;;;;;;;5.78;5.28;;;23.00;81.80;22.70;99702.00;;;;337379;28;91920;-89
2021/06/11 00:51:22;;;;;;;6.03;5.50;;;23.00;81.80;22.60;99698.00;;;;338637;28;95585;-90
2021/06/11 00:51:33;;;;;;;6.22;5.68;;;23.00;81.80;22.60;99700.00;;;;338333;28;92051;-89
2021/06/11 00:51:45;;;;;;;5.82;5.32;;;23.00;81.70;22.80;99694.00;;;;340047;28;95805;-88
2021/06/11 00:51:58;;;;;;;5.82;5.30;;;23.00;81.70;22.70;99697.00;;;;338370;28;91201;-90
2021/06/11 00:52:10;;;;;;;5.88;5.38;;;22.90;81.70;22.80;99704.00;;;;338802;28;95831;-89
2021/06/11 00:52:22;;;;;;;5.45;4.93;;;22.90;81.70;22.90;99705.00;;;;339093;28;91409;-90
2021/06/11 00:52:34;;;;;;;5.28;4.78;;;23.00;81.80;22.80;99696.00;;;;339684;28;96438;-90
2021/06/11 00:52:46;;;;;;;5.32;4.93;;;23.00;81.70;22.90;99705.00;;;;339730;28;92082;-90
2021/06/11 00:52:58;;;;;;;5.60;5.10;;;22.90;81.80;22.90;99706.00;;;;337458;28;94223;-90
2021/06/11 00:53:10;;;;;;;6.10;5.35;;;23.00;81.90;22.80;99703.00;;;;337124;28;92083;-90
2021/06/11 00:53:22;;;;;;;6.15;5.55;;;22.90;82.00;22.80;99707.00;;;;335215;28;93612;-90
2021/06/11 00:53:34;;;;;;;5.80;5.30;;;22.90;81.90;22.90;99711.00;;;;337343;28;91975;-89
2021/06/11 00:53:45;;;;;;;5.45;5.05;;;22.90;81.80;22.90;99704.00;;;;337512;28;92704;-90
2021/06/11 00:53:57;;;;;;;5.47;5.05;;;23.00;81.90;22.70;99703.00;;;;341373;28;91936;-89
2021/06/11 00:54:09;;;;;;;5.40;5.00;;;22.90;81.80;22.70;99699.00;;;;340167;28;94801;-90
2021/06/11 00:54:21;;;;;;;5.25;4.85;;;22.90;81.90;22.80;99703.00;;;;339907;28;91443;-89
2021/06/11 00:54:34;;;;;;;5.00;4.60;;;22.90;81.80;22.90;99705.00;;;;337534;28;94056;-89
2021/06/11 00:54:46;;;;;;;5.25;4.85;;;23.00;81.90;22.70;99698.00;;;;338696;28;91999;-89